Time;durP1;ratioP1;P1;durP2;ratioP2;P2;SDS_P1;SDS_P2;PMS_P1;PMS_P2;Temp;Humidity;BMP_temperature;BMP_pressure;BME280_temperature;BME280_humidity;BME280_pressure;Samples;Min_cycle;Max_cycle;Signal;HPM_P1;HPM_P2
2022/12/08 00:01:09;;;;;;;36.30;17.67;;;3.00;99.90;;;;;;5088437;28;20055;-41
2022/12/08 00:03:34;;;;;;;30.20;17.35;;;3.00;99.90;;;;;;5088930;28;20060;-41
2022/12/08 00:11:32;;;;;;;34.17;17.48;;;3.00;99.90;;;;;;5089142;28;20031;-41
2022/12/08 00:13:58;;;;;;;34.88;17.75;;;3.10;99.90;;;;;;5093709;28;20015;-41
2022/12/08 00:16:24;;;;;;;30.27;16.55;;;3.10;99.90;;;;;;5094251;28;20012;-41
2022/12/08 00:18:50;;;;;;;31.33;17.70;;;3.20;99.90;;;;;;5087561;28;20503;-40
2022/12/08 00:21:15;;;;;;;30.83;17.55;;;3.20;99.90;;;;;;5089744;28;20504;-41
2022/12/08 00:23:41;;;;;;;31.35;17.73;;;3.10;99.90;;;;;;5092144;28;20028;-41
2022/12/08 00:26:07;;;;;;;33.58;17.25;;;3.10;99.90;;;;;;5092549;28;20036;-41
2022/12/08 00:28:33;;;;;;;31.33;16.60;;;3.10;99.90;;;;;;5087053;28;20036;-41
2022/12/08 00:31:05;;;;;;;30.95;17.42;;;3.10;99.90;;;;;;5091820;28;20028;-41
2022/12/08 00:33:31;;;;;;;33.83;18.00;;;3.10;99.90;;;;;;5092326;28;20077;-40
2022/12/08 00:35:56;;;;;;;35.78;18.48;;;3.10;99.90;;;;;;5092111;28;20094;-41
2022/12/08 00:38:22;;;;;;;31.58;18.55;;;3.10;99.90;;;;;;5089887;28;20062;-41
2022/12/08 00:40:48;;;;;;;30.60;18.48;;;3.10;99.90;;;;;;5087678;28;20039;-41
2022/12/08 00:43:14;;;;;;;32.58;17.08;;;3.10;99.90;;;;;;5090183;28;20028;-41
2022/12/08 00:45:40;;;;;;;23.52;16.52;;;3.10;99.90;;;;;;5088562;28;20400;-41
2022/12/08 00:48:06;;;;;;;23.40;14.82;;;3.10;99.90;;;;;;5087691;28;20028;-40
2022/12/08 00:50:32;;;;;;;25.05;14.70;;;3.10;99.90;;;;;;5086393;28;20035;-40
2022/12/08 00:52:58;;;;;;;24.25;15.50;;;3.10;99.90;;;;;;5090314;28;20020;-40
2022/12/08 00:55:23;;;;;;;25.30;15.70;;;3.00;99.90;;;;;;5091732;28;20024;-40
2022/12/08 00:57:49;;;;;;;21.38;14.52;;;3.00;99.90;;;;;;5091913;28;20024;-42
2022/12/08 01:00:17;;;;;;;30.13;15.90;;;2.90;99.90;;;;;;5091366;28;20043;-41
2022/12/08 01:02:46;;;;;;;27.98;15.30;;;2.90;99.90;;;;;;5091281;28;20370;-42
2022/12/08 01:05:14;;;;;;;23.67;16.42;;;2.90;99.90;;;;;;5091480;28;20107;-42
2022/12/08 01:07:40;;;;;;;24.67;16.05;;;2.90;99.90;;;;;;5091545;28;20163;-41
2022/12/08 01:10:09;;;;;;;27.70;16.98;;;2.90;99.90;;;;;;5091224;28;20099;-41
2022/12/08 01:12:34;;;;;;;27.27;17.27;;;2.90;99.90;;;;;;5098316;28;20154;-41
2022/12/08 01:15:03;;;;;;;27.88;17.00;;;2.90;99.90;;;;;;5109981;28;20055;-41
2022/12/08 01:17:29;;;;;;;27.00;17.27;;;2.90;99.90;;;;;;5111490;28;20030;-41
2022/12/08 01:19:55;;;;;;;30.10;18.15;;;2.90;99.90;;;;;;5111214;28;20106;-42
2022/12/08 01:22:21;;;;;;;30.27;17.25;;;2.90;99.90;;;;;;5110676;28;20015;-42
2022/12/08 01:24:46;;;;;;;27.52;16.88;;;2.80;99.90;;;;;;5110509;28;20059;-41
2022/12/08 01:27:15;;;;;;;27.48;18.58;;;2.90;99.90;;;;;;5100189;28;20435;-42
2022/12/08 01:29:41;;;;;;;29.52;17.77;;;2.90;99.90;;;;;;5089096;28;20062;-42
2022/12/08 01:32:08;;;;;;;30.35;18.38;;;2.90;99.90;;;;;;5089657;28;20024;-43
2022/12/08 01:34:33;;;;;;;33.35;19.60;;;2.90;99.90;;;;;;5089838;28;20020;-41
2022/12/08 01:36:59;;;;;;;28.60;17.90;;;2.90;99.90;;;;;;5091115;28;20030;-42
2022/12/08 01:39:25;;;;;;;31.02;19.27;;;2.90;99.90;;;;;;5091181;28;20519;-41
2022/12/08 01:41:51;;;;;;;33.50;20.33;;;2.90;99.90;;;;;;5089749;28;20071;-42
2022/12/08 01:44:16;;;;;;;37.05;22.17;;;2.90;99.90;;;;;;5090952;28;20028;-42
2022/12/08 01:46:44;;;;;;;42.08;21.58;;;2.90;99.90;;;;;;5091285;28;20032;-42
2022/12/08 01:49:13;;;;;;;38.28;22.42;;;3.00;99.90;;;;;;5089031;28;20473;-42
2022/12/08 01:51:49;;;;;;;40.47;22.75;;;3.00;99.90;;;;;;5090721;28;20067;-41
2022/12/08 01:54:16;;;;;;;43.92;22.67;;;3.00;99.90;;;;;;5090752;28;20680;-44
2022/12/08 01:56:46;;;;;;;39.47;23.10;;;3.10;99.90;;;;;;5085038;28;20502;-41
2022/12/08 01:59:12;;;;;;;37.53;22.42;;;3.10;99.90;;;;;;5099710;28;20059;-41
2022/12/08 02:01:38;;;;;;;39.53;21.58;;;3.10;99.90;;;;;;5095849;28;20508;-42
2022/12/08 02:04:05;;;;;;;36.45;21.75;;;3.10;99.90;;;;;;5107804;28;20031;-43
2022/12/08 02:06:35;;;;;;;38.95;20.30;;;3.20;99.90;;;;;;5094746;28;20020;-42
2022/12/08 02:09:02;;;;;;;37.65;19.88;;;3.20;99.90;;;;;;5089995;28;20020;-42
2022/12/08 02:11:28;;;;;;;38.55;20.83;;;3.20;99.90;;;;;;5089789;28;20473;-42
2022/12/08 02:13:56;;;;;;;41.67;21.73;;;3.20;99.90;;;;;;5090191;28;20028;-42
2022/12/08 02:16:54;;;;;;;32.50;19.30;;;3.20;99.90;;;;;;5089337;28;20081;-42
2022/12/08 02:19:54;;;;;;;31.30;19.63;;;3.20;99.90;;;;;;5089725;28;20027;-42
2022/12/08 02:22:34;;;;;;;29.98;19.67;;;3.20;99.90;;;;;;5045161;28;20036;-41
2022/12/08 02:25:17;;;;;;;29.92;18.23;;;3.20;99.90;;;;;;5088161;28;20485;-41
2022/12/08 02:28:13;;;;;;;31.55;17.75;;;3.20;99.90;;;;;;5078324;28;20585;-41
2022/12/08 02:31:17;;;;;;;34.83;18.17;;;3.30;99.90;;;;;;5079791;28;20026;-42
2022/12/08 02:33:48;;;;;;;33.40;19.20;;;3.30;99.90;;;;;;5079083;28;20020;-41
2022/12/08 02:36:34;;;;;;;26.52;16.80;;;3.30;99.90;;;;;;5078996;28;20492;-41
2022/12/08 02:39:27;;;;;;;33.03;17.80;;;3.30;99.90;;;;;;5078646;28;20389;-41
2022/12/08 02:42:11;;;;;;;30.65;17.80;;;3.30;99.90;;;;;;5080091;28;20035;-41
2022/12/08 02:44:51;;;;;;;28.40;16.60;;;3.30;99.90;;;;;;5079744;28;20224;-41
2022/12/08 02:47:20;;;;;;;30.75;17.83;;;3.40;99.90;;;;;;5079441;28;20054;-41
2022/12/08 02:49:46;;;;;;;26.60;16.23;;;3.40;99.90;;;;;;5082654;28;20434;-41
2022/12/08 02:52:12;;;;;;;27.98;16.77;;;3.40;99.90;;;;;;5077069;28;20028;-45
2022/12/08 02:54:54;;;;;;;30.67;15.75;;;3.30;99.90;;;;;;5081139;28;20016;-46
2022/12/08 02:57:41;;;;;;;26.45;16.98;;;3.30;99.90;;;;;;5080652;28;20012;-46
2022/12/08 03:00:14;;;;;;;30.92;17.15;;;3.40;99.90;;;;;;5064043;28;20089;-48
2022/12/08 03:02:55;;;;;;;26.90;15.82;;;3.40;99.90;;;;;;5076568;28;20406;-46
2022/12/08 03:05:59;;;;;;;25.30;14.70;;;3.30;99.90;;;;;;5079922;28;20028;-41
2022/12/08 03:08:40;;;;;;;27.67;14.48;;;3.30;99.90;;;;;;5079443;28;20381;-41
2022/12/08 03:11:20;;;;;;;22.75;13.95;;;3.40;99.90;;;;;;5077970;28;20497;-41
2022/12/08 03:13:51;;;;;;;26.93;15.20;;;3.30;99.90;;;;;;5076934;28;20492;-41
2022/12/08 03:16:27;;;;;;;26.50;14.18;;;3.30;99.90;;;;;;5083253;28;20254;-41
2022/12/08 03:19:06;;;;;;;26.65;14.02;;;3.30;99.90;;;;;;5082045;28;20039;-45
2022/12/08 03:21:33;;;;;;;23.48;14.10;;;3.40;99.90;;;;;;5081987;28;20038;-45
2022/12/08 03:24:01;;;;;;;29.60;15.38;;;3.30;99.90;;;;;;5087342;28;20270;-45
2022/12/08 03:26:38;;;;;;;29.65;14.15;;;3.40;99.90;;;;;;5086464;28;20019;-45
2022/12/08 03:29:05;;;;;;;24.73;13.40;;;3.30;99.90;;;;;;5087654;28;20044;-45
2022/12/08 03:31:36;;;;;;;24.00;12.80;;;3.30;99.90;;;;;;5084303;28;20036;-45
2022/12/08 03:34:03;;;;;;;27.23;14.13;;;3.40;99.90;;;;;;5087414;28;20079;-47
2022/12/08 03:36:30;;;;;;;29.02;12.73;;;3.30;99.90;;;;;;5084928;28;20090;-46
2022/12/08 03:38:56;;;;;;;22.00;14.55;;;3.40;99.90;;;;;;5086028;28;20107;-46
2022/12/08 03:41:23;;;;;;;23.27;13.63;;;3.40;99.90;;;;;;5087407;28;20686;-45
2022/12/08 03:43:59;;;;;;;22.92;13.27;;;3.30;99.90;;;;;;5087368;28;20078;-45
2022/12/08 03:46:27;;;;;;;22.65;13.35;;;3.30;99.90;;;;;;5087578;28;20027;-45
2022/12/08 03:48:53;;;;;;;27.20;13.52;;;3.30;99.90;;;;;;5088343;28;20024;-45
2022/12/08 03:51:20;;;;;;;31.08;13.82;;;3.30;99.90;;;;;;5088140;28;20028;-45
2022/12/08 03:53:46;;;;;;;22.33;13.45;;;3.30;99.90;;;;;;5083391;28;20578;-45
2022/12/08 03:56:25;;;;;;;30.35;13.98;;;3.20;99.90;;;;;;5088260;28;20028;-45
2022/12/08 03:58:51;;;;;;;28.23;14.05;;;3.10;99.90;;;;;;5092881;28;20028;-45
2022/12/08 04:01:17;;;;;;;24.48;13.95;;;3.10;99.90;;;;;;5090912;28;20066;-43
2022/12/08 04:03:43;;;;;;;30.98;15.38;;;3.10;99.90;;;;;;5092681;28;20063;-43
2022/12/08 04:06:08;;;;;;;28.77;14.13;;;3.10;99.90;;;;;;5092750;28;20109;-42
2022/12/08 04:08:34;;;;;;;25.83;14.38;;;3.10;99.90;;;;;;5092650;28;20066;-41
2022/12/08 04:11:00;;;;;;;26.85;13.73;;;3.10;99.90;;;;;;5092249;28;20020;-41
2022/12/08 04:13:26;;;;;;;23.25;12.65;;;3.00;99.90;;;;;;5091327;28;20024;-42
2022/12/08 04:15:52;;;;;;;23.63;14.15;;;3.00;99.90;;;;;;5091202;28;20055;-41
2022/12/08 04:18:18;;;;;;;28.65;13.93;;;3.00;99.90;;;;;;5092502;28;20028;-42
2022/12/08 04:20:45;;;;;;;26.98;13.88;;;3.00;99.90;;;;;;5090198;28;20039;-41
2022/12/08 04:23:11;;;;;;;26.50;14.43;;;2.90;99.90;;;;;;5091642;28;20024;-41
2022/12/08 04:25:37;;;;;;;28.08;13.82;;;2.90;99.90;;;;;;5092471;28;20285;-42
2022/12/08 04:28:04;;;;;;;28.73;14.00;;;2.90;99.90;;;;;;5088318;28;20024;-41
2022/12/08 04:30:29;;;;;;;27.05;14.40;;;2.90;99.90;;;;;;5091763;28;20028;-41
2022/12/08 04:32:57;;;;;;;20.10;13.25;;;2.90;99.90;;;;;;5092514;28;20024;-41
2022/12/08 04:35:23;;;;;;;25.55;13.15;;;2.90;99.90;;;;;;5092337;28;20027;-41
2022/12/08 04:37:51;;;;;;;25.70;13.77;;;2.90;99.90;;;;;;5091993;28;20025;-43
2022/12/08 04:40:18;;;;;;;23.70;12.23;;;2.90;99.90;;;;;;5091413;28;20024;-42
2022/12/08 04:42:47;;;;;;;28.00;13.60;;;2.90;99.90;;;;;;5092064;28;20021;-42
2022/12/08 04:45:15;;;;;;;27.52;13.13;;;2.90;99.90;;;;;;5091957;28;20103;-43
2022/12/08 04:47:42;;;;;;;23.25;13.07;;;2.90;99.90;;;;;;5089537;28;20016;-43
2022/12/08 04:50:10;;;;;;;22.95;13.50;;;2.90;99.90;;;;;;5086321;28;20115;-42
2022/12/08 04:52:36;;;;;;;21.25;12.20;;;2.90;99.90;;;;;;5091692;28;20385;-41
2022/12/08 04:55:02;;;;;;;23.17;12.10;;;2.90;99.90;;;;;;5086665;28;20032;-42
2022/12/08 04:57:31;;;;;;;24.58;11.45;;;2.90;99.90;;;;;;5088702;28;20023;-42
2022/12/08 04:59:57;;;;;;;21.92;11.88;;;2.90;99.90;;;;;;5082893;28;20447;-42
2022/12/08 05:02:26;;;;;;;27.45;13.43;;;2.90;99.90;;;;;;5090642;28;20323;-42
2022/12/08 05:04:55;;;;;;;27.95;12.38;;;2.90;99.90;;;;;;5090735;28;20476;-41
2022/12/08 05:07:21;;;;;;;24.10;12.50;;;2.90;99.90;;;;;;5082051;28;20480;-41
2022/12/08 05:09:46;;;;;;;23.73;13.35;;;2.80;99.90;;;;;;5106030;28;20035;-41
2022/12/08 05:12:12;;;;;;;23.00;12.98;;;2.90;99.90;;;;;;5111794;28;20484;-41
2022/12/08 05:14:38;;;;;;;26.92;13.15;;;2.90;99.90;;;;;;5110289;28;20031;-40
2022/12/08 05:17:04;;;;;;;31.08;13.43;;;2.90;99.90;;;;;;5111791;28;20024;-41
2022/12/08 05:19:30;;;;;;;23.10;12.88;;;2.90;99.90;;;;;;5111242;28;20039;-40
2022/12/08 05:21:55;;;;;;;21.90;12.05;;;2.90;99.90;;;;;;5111302;28;20507;-40
2022/12/08 05:24:21;;;;;;;28.00;12.85;;;2.90;99.90;;;;;;5106358;28;20025;-41
2022/12/08 05:26:46;;;;;;;21.27;12.65;;;2.90;99.90;;;;;;5089431;28;20028;-40
2022/12/08 05:29:12;;;;;;;22.55;12.95;;;2.90;99.90;;;;;;5090941;28;20028;-41
2022/12/08 05:31:38;;;;;;;27.10;12.88;;;2.90;99.90;;;;;;5089942;28;20764;-41
2022/12/08 05:34:04;;;;;;;27.90;13.95;;;2.90;99.90;;;;;;5087247;28;20015;-41
2022/12/08 05:36:30;;;;;;;29.30;15.10;;;2.90;99.90;;;;;;5090885;28;20093;-42
2022/12/08 05:38:57;;;;;;;26.83;13.45;;;2.90;99.90;;;;;;5090937;28;20469;-42
2022/12/08 05:41:22;;;;;;;24.73;13.40;;;2.90;99.90;;;;;;5083805;28;20028;-42
2022/12/08 05:43:48;;;;;;;25.98;13.65;;;2.90;99.90;;;;;;5083646;28;20074;-41
2022/12/08 05:46:15;;;;;;;27.42;13.77;;;2.90;99.90;;;;;;5098039;28;20024;-41
2022/12/08 05:48:41;;;;;;;26.80;13.20;;;2.90;99.90;;;;;;5103696;27;20019;-41
2022/12/08 05:51:19;;;;;;;25.98;13.60;;;2.90;99.90;;;;;;5105005;28;20530;-42
2022/12/08 05:53:46;;;;;;;24.83;13.35;;;2.90;99.90;;;;;;5104062;28;20050;-41
2022/12/08 05:56:12;;;;;;;26.05;14.20;;;2.90;99.90;;;;;;5095848;28;20034;-41
2022/12/08 05:58:38;;;;;;;24.08;13.20;;;2.90;99.90;;;;;;5094140;28;20107;-42
2022/12/08 06:01:04;;;;;;;25.83;14.07;;;2.90;99.90;;;;;;5105227;28;20107;-42
2022/12/08 06:03:29;;;;;;;27.08;13.88;;;2.90;99.90;;;;;;5097437;28;20020;-42
2022/12/08 06:05:55;;;;;;;28.42;13.57;;;2.90;99.90;;;;;;5098754;28;20500;-42
2022/12/08 06:08:21;;;;;;;29.08;14.13;;;3.00;99.90;;;;;;5089527;28;20036;-43
2022/12/08 06:10:46;;;;;;;22.52;12.90;;;3.00;99.90;;;;;;5087179;28;20018;-42
2022/12/08 06:13:13;;;;;;;24.83;13.77;;;3.00;99.90;;;;;;5077155;28;20088;-41
2022/12/08 06:15:39;;;;;;;30.05;14.02;;;3.00;99.90;;;;;;5080355;28;20070;-40
2022/12/08 06:18:05;;;;;;;26.40;14.38;;;3.00;99.90;;;;;;5086409;28;20016;-40
2022/12/08 06:20:31;;;;;;;32.80;14.68;;;3.00;99.90;;;;;;5084042;28;20035;-41
2022/12/08 06:22:57;;;;;;;24.55;14.57;;;3.00;99.90;;;;;;5087129;28;20027;-40
2022/12/08 06:25:23;;;;;;;26.77;13.05;;;3.00;99.90;;;;;;5082611;28;20112;-40
2022/12/08 06:27:49;;;;;;;21.60;13.85;;;3.00;99.90;;;;;;5078171;28;20397;-41
2022/12/08 06:30:15;;;;;;;20.70;13.23;;;3.00;99.90;;;;;;5084723;28;20028;-40
2022/12/08 06:32:41;;;;;;;25.85;14.13;;;3.00;99.90;;;;;;5078835;28;20025;-41
2022/12/08 06:35:08;;;;;;;27.58;15.00;;;3.00;99.90;;;;;;5082594;28;20327;-40
2022/12/08 06:37:34;;;;;;;30.45;14.70;;;3.00;99.90;;;;;;5084121;28;20024;-40
2022/12/08 06:39:59;;;;;;;26.08;15.63;;;3.10;99.90;;;;;;5079588;28;20029;-40
2022/12/08 06:42:43;;;;;;;32.67;15.98;;;3.10;99.90;;;;;;5080063;28;20027;-40
2022/12/08 06:45:11;;;;;;;34.47;17.02;;;3.00;99.90;;;;;;5078444;28;20056;-40
2022/12/08 06:47:37;;;;;;;31.35;17.23;;;3.10;99.90;;;;;;5070757;28;20024;-40
2022/12/08 06:50:04;;;;;;;31.25;16.55;;;3.10;99.90;;;;;;5078935;28;20152;-40
2022/12/08 06:52:30;;;;;;;34.47;17.60;;;3.10;99.90;;;;;;5088484;28;20080;-40
2022/12/08 06:54:56;;;;;;;33.67;17.08;;;3.20;99.90;;;;;;5084084;28;20032;-40
2022/12/08 06:57:23;;;;;;;36.17;18.80;;;3.20;99.90;;;;;;5087608;28;20020;-40
2022/12/08 06:59:48;;;;;;;31.13;17.17;;;3.30;99.90;;;;;;5087486;28;20160;-40
2022/12/08 07:02:14;;;;;;;32.03;16.23;;;3.30;99.90;;;;;;5089044;28;20113;-40
2022/12/08 07:04:39;;;;;;;34.97;17.42;;;3.30;99.90;;;;;;5093662;28;20032;-39
2022/12/08 07:07:05;;;;;;;34.30;18.00;;;3.40;99.90;;;;;;5097750;28;20016;-39
2022/12/08 07:09:31;;;;;;;33.13;18.35;;;3.30;99.90;;;;;;5087918;28;20028;-41
2022/12/08 07:11:57;;;;;;;29.90;16.52;;;3.30;99.90;;;;;;5080967;28;20024;-39
2022/12/08 07:14:23;;;;;;;33.35;17.27;;;3.40;99.90;;;;;;5087758;28;20111;-39
2022/12/08 07:16:50;;;;;;;36.13;18.27;;;3.40;99.90;;;;;;5087858;28;20038;-40
2022/12/08 07:19:17;;;;;;;31.58;17.40;;;3.40;99.90;;;;;;5086436;28;20352;-40
2022/12/08 07:21:42;;;;;;;33.80;19.33;;;3.40;99.90;;;;;;5088494;28;20085;-40
2022/12/08 07:24:08;;;;;;;37.05;19.00;;;3.40;99.90;;;;;;5077974;28;20032;-40
2022/12/08 07:26:34;;;;;;;36.97;18.63;;;3.40;99.90;;;;;;5086015;28;20032;-41
2022/12/08 07:28:59;;;;;;;33.60;17.42;;;3.30;99.90;;;;;;5080996;28;20077;-40
2022/12/08 07:31:27;;;;;;;36.10;19.27;;;3.40;99.90;;;;;;5087654;28;20020;-41
2022/12/08 07:33:54;;;;;;;40.85;17.65;;;3.40;99.90;;;;;;5088220;28;20030;-41
2022/12/08 07:36:20;;;;;;;35.00;18.48;;;3.40;99.90;;;;;;5084921;28;20023;-41
2022/12/08 07:38:47;;;;;;;36.85;18.38;;;3.40;99.90;;;;;;5087343;28;20024;-41
2022/12/08 07:41:17;;;;;;;36.63;20.65;;;3.40;99.90;;;;;;5087482;28;20543;-41
2022/12/08 07:43:44;;;;;;;33.95;17.60;;;3.40;99.90;;;;;;5088458;28;20032;-41
2022/12/08 07:46:14;;;;;;;39.20;19.55;;;3.50;99.90;;;;;;5088314;28;20024;-41
2022/12/08 07:48:41;;;;;;;37.20;18.65;;;3.40;99.90;;;;;;5088220;28;20089;-41
2022/12/08 07:51:07;;;;;;;36.15;17.25;;;3.50;99.90;;;;;;5087453;28;20038;-42
2022/12/08 07:53:33;;;;;;;29.65;17.20;;;3.50;99.90;;;;;;5087516;28;20028;-41
2022/12/08 07:55:59;;;;;;;35.90;18.52;;;3.50;99.90;;;;;;5087127;28;20059;-41
2022/12/08 07:58:26;;;;;;;34.88;17.52;;;3.50;99.90;;;;;;5087112;28;20052;-41
2022/12/08 08:00:52;;;;;;;39.58;18.42;;;3.40;99.90;;;;;;5087040;28;20024;-42
2022/12/08 08:03:18;;;;;;;31.42;16.80;;;3.40;99.90;;;;;;5087167;28;20396;-41
2022/12/08 08:05:43;;;;;;;32.33;18.48;;;3.40;99.90;;;;;;5088301;28;20343;-42
2022/12/08 08:08:09;;;;;;;35.20;17.17;;;3.40;99.90;;;;;;5087949;28;20035;-41
2022/12/08 08:10:35;;;;;;;33.00;17.13;;;3.40;99.90;;;;;;5085740;28;20016;-42
2022/12/08 08:13:01;;;;;;;30.33;16.65;;;3.40;99.90;;;;;;5088139;28;20077;-41
2022/12/08 08:15:26;;;;;;;35.92;17.83;;;3.40;99.90;;;;;;5088158;28;20024;-41
2022/12/08 08:17:53;;;;;;;32.72;17.63;;;3.30;99.90;;;;;;5088261;28;20024;-41
2022/12/08 08:20:24;;;;;;;35.55;18.33;;;3.30;99.90;;;;;;5086022;28;20025;-41
2022/12/08 08:22:50;;;;;;;36.20;17.40;;;3.30;99.90;;;;;;5086497;28;20051;-41
2022/12/08 08:25:17;;;;;;;35.60;17.35;;;3.30;99.90;;;;;;5078125;28;20035;-41
2022/12/08 08:27:46;;;;;;;31.60;17.25;;;3.40;99.90;;;;;;5078511;28;20385;-42
2022/12/08 08:30:12;;;;;;;32.85;18.33;;;3.40;99.90;;;;;;5084414;28;20028;-41
2022/12/08 08:32:39;;;;;;;35.03;17.77;;;3.30;99.90;;;;;;5077232;28;20024;-44
2022/12/08 08:35:05;;;;;;;29.40;17.23;;;3.30;99.90;;;;;;5076906;28;20021;-42
2022/12/08 08:37:31;;;;;;;30.92;17.70;;;3.30;99.90;;;;;;5079542;28;20032;-42
2022/12/08 08:39:57;;;;;;;36.78;18.30;;;3.30;99.90;;;;;;5075909;28;20026;-41
2022/12/08 08:42:23;;;;;;;35.42;19.15;;;3.30;99.90;;;;;;5079823;28;20073;-42
2022/12/08 08:44:48;;;;;;;36.35;19.95;;;3.30;99.90;;;;;;5080304;28;20124;-42
2022/12/08 08:47:14;;;;;;;31.38;17.75;;;3.20;99.90;;;;;;5079950;28;20048;-42
2022/12/08 08:49:40;;;;;;;31.67;16.90;;;3.20;99.90;;;;;;5072786;28;20017;-41
2022/12/08 08:52:06;;;;;;;33.83;17.45;;;3.10;99.90;;;;;;5069861;28;20115;-42
2022/12/08 08:54:32;;;;;;;37.10;18.13;;;3.20;99.90;;;;;;5082999;28;20032;-43
2022/12/08 08:56:59;;;;;;;32.35;18.42;;;3.10;99.90;;;;;;5089380;28;20025;-43
2022/12/08 08:59:25;;;;;;;35.00;18.05;;;3.00;99.90;;;;;;5081072;28;20028;-41
2022/12/08 09:01:52;;;;;;;30.63;17.50;;;3.00;99.90;;;;;;5081488;28;20028;-47
2022/12/08 09:04:17;;;;;;;29.67;17.02;;;3.00;99.90;;;;;;5079341;28;20025;-46
2022/12/08 09:06:44;;;;;;;29.52;16.60;;;2.90;99.90;;;;;;5084085;28;20050;-49
2022/12/08 09:09:11;;;;;;;33.33;18.15;;;2.90;99.90;;;;;;5088929;28;20031;-49
2022/12/08 09:11:37;;;;;;;33.63;19.15;;;2.80;99.90;;;;;;5093272;28;20020;-46
2022/12/08 09:14:02;;;;;;;38.78;20.48;;;2.80;99.90;;;;;;5073675;28;20471;-46
2022/12/08 09:16:28;;;;;;;33.05;18.60;;;2.80;99.90;;;;;;5092463;28;20016;-46
2022/12/08 09:18:54;;;;;;;36.83;19.23;;;2.80;99.90;;;;;;5091485;28;20024;-47
2022/12/08 09:21:25;;;;;;;37.28;21.27;;;2.70;99.90;;;;;;5090094;28;20077;-47
2022/12/08 09:23:53;;;;;;;34.22;19.13;;;2.70;99.90;;;;;;5083505;28;20024;-47
2022/12/08 09:26:23;;;;;;;34.78;18.83;;;2.60;99.90;;;;;;5072630;28;20499;-47
2022/12/08 09:28:50;;;;;;;35.63;20.00;;;2.70;99.90;;;;;;5078230;28;20135;-46
2022/12/08 09:31:17;;;;;;;39.15;20.30;;;2.60;99.90;;;;;;5089372;28;20016;-46
2022/12/08 09:33:42;;;;;;;38.25;20.63;;;2.60;99.90;;;;;;5090756;28;20035;-47
2022/12/08 09:36:09;;;;;;;37.40;21.60;;;2.70;99.90;;;;;;5095267;28;20016;-46
2022/12/08 09:38:35;;;;;;;39.45;21.65;;;2.60;99.90;;;;;;5095026;28;20377;-46
2022/12/08 09:41:04;;;;;;;46.08;22.38;;;2.60;99.90;;;;;;5089804;28;20103;-46
2022/12/08 09:43:55;;;;;;;38.65;21.70;;;2.60;99.90;;;;;;5069303;28;20024;-46
2022/12/08 09:46:21;;;;;;;47.08;21.85;;;2.60;99.90;;;;;;5082943;28;20028;-47
2022/12/08 09:48:58;;;;;;;39.05;20.95;;;2.70;99.90;;;;;;5095917;28;20234;-49
2022/12/08 09:51:29;;;;;;;47.10;24.02;;;2.70;99.90;;;;;;5100395;28;20169;-46
2022/12/08 09:54:00;;;;;;;43.63;23.48;;;2.70;99.90;;;;;;5090354;28;20519;-46
2022/12/08 09:56:34;;;;;;;47.80;24.63;;;2.70;99.90;;;;;;5089820;28;20496;-48
2022/12/08 09:59:29;;;;;;;50.78;24.48;;;2.70;99.90;;;;;;5089448;28;20031;-46
2022/12/08 10:01:55;;;;;;;47.40;23.63;;;2.70;99.90;;;;;;5078752;28;20028;-49
2022/12/08 10:04:37;;;;;;;51.30;26.38;;;2.80;99.90;;;;;;5105095;28;20119;-49
2022/12/08 10:07:14;;;;;;;53.75;26.20;;;2.80;99.90;;;;;;5091544;28;20028;-48
2022/12/08 10:10:04;;;;;;;52.83;25.67;;;2.90;99.90;;;;;;5097207;28;20433;-46
2022/12/08 10:13:05;;;;;;;57.13;28.23;;;3.00;99.90;;;;;;5092192;28;20492;-46
2022/12/08 10:15:46;;;;;;;51.78;26.55;;;3.00;99.90;;;;;;5088833;28;20051;-47
2022/12/08 10:18:25;;;;;;;49.65;25.60;;;3.10;99.90;;;;;;5088462;28;20073;-47
2022/12/08 10:20:53;;;;;;;45.28;25.48;;;3.20;99.90;;;;;;5089259;28;20078;-45
2022/12/08 10:23:28;;;;;;;44.78;25.80;;;3.30;99.90;;;;;;5100098;28;20477;-45
2022/12/08 10:26:01;;;;;;;51.90;26.90;;;3.30;99.90;;;;;;5110108;27;20061;-46
2022/12/08 10:28:26;;;;;;;46.33;24.25;;;3.40;99.90;;;;;;5086111;28;20019;-46
2022/12/08 10:30:52;;;;;;;45.38;25.85;;;3.40;99.90;;;;;;5085378;28;20035;-46
2022/12/08 10:33:20;;;;;;;44.20;23.45;;;3.50;99.90;;;;;;5089228;28;20493;-46
2022/12/08 10:35:48;;;;;;;43.33;23.52;;;3.60;99.90;;;;;;5090254;28;20855;-46
2022/12/08 10:38:30;;;;;;;44.53;23.33;;;3.60;99.90;;;;;;5089698;28;20362;-47
2022/12/08 10:41:08;;;;;;;41.97;22.85;;;3.60;99.90;;;;;;5089028;28;20169;-46
2022/12/08 10:43:46;;;;;;;42.90;24.05;;;3.70;99.90;;;;;;5089260;28;20028;-47
2022/12/08 10:46:20;;;;;;;33.83;19.67;;;3.80;99.90;;;;;;5089828;28;20539;-46
2022/12/08 10:48:53;;;;;;;39.30;22.52;;;3.80;99.90;;;;;;5084880;28;20058;-47
2022/12/08 10:51:29;;;;;;;33.92;20.38;;;3.80;99.90;;;;;;5091004;28;20243;-46
2022/12/08 10:53:55;;;;;;;31.15;18.95;;;3.90;99.90;;;;;;5109287;27;20015;-47
2022/12/08 10:56:30;;;;;;;31.90;19.02;;;4.00;99.90;;;;;;5088121;28;20020;-48
2022/12/08 10:59:15;;;;;;;31.40;18.70;;;4.10;99.90;;;;;;5071276;28;20440;-48
2022/12/08 11:01:45;;;;;;;35.00;18.88;;;4.10;99.90;;;;;;5084723;28;20035;-46
2022/12/08 11:04:22;;;;;;;26.20;17.40;;;4.10;99.90;;;;;;5086629;28;20027;-46
2022/12/08 11:06:49;;;;;;;32.63;17.55;;;4.00;99.90;;;;;;5081293;28;20493;-46
2022/12/08 11:09:15;;;;;;;26.30;16.80;;;4.10;99.90;;;;;;5079736;28;20110;-46
2022/12/08 11:11:46;;;;;;;25.52;16.52;;;4.00;99.90;;;;;;5086807;28;20492;-46
2022/12/08 11:14:41;;;;;;;25.17;16.67;;;4.10;99.90;;;;;;5087123;28;20032;-45
2022/12/08 11:17:21;;;;;;;21.85;14.65;;;4.10;99.90;;;;;;5083223;28;20032;-46
2022/12/08 11:20:19;;;;;;;21.55;15.13;;;4.10;99.90;;;;;;5096708;28;20398;-46
2022/12/08 11:22:53;;;;;;;20.73;13.60;;;4.20;99.90;;;;;;5088336;28;20032;-46
2022/12/08 11:25:21;;;;;;;24.30;13.55;;;4.30;99.90;;;;;;5088751;28;20401;-46
2022/12/08 11:27:49;;;;;;;20.73;12.25;;;4.40;99.90;;;;;;5081065;28;20031;-46
2022/12/08 11:30:39;;;;;;;16.33;11.25;;;4.30;99.90;;;;;;5079187;28;20540;-48
2022/12/08 11:33:25;;;;;;;17.25;10.43;;;4.30;99.90;;;;;;5089626;28;20088;-46
2022/12/08 11:36:01;;;;;;;14.70;10.13;;;4.40;99.90;;;;;;5085505;28;20032;-47
2022/12/08 11:38:28;;;;;;;13.88;9.07;;;4.50;99.90;;;;;;5079910;28;20551;-46
2022/12/08 11:41:10;;;;;;;12.60;8.85;;;4.50;99.90;;;;;;5076883;28;20089;-46
2022/12/08 11:44:11;;;;;;;15.30;9.25;;;4.50;99.90;;;;;;5090408;28;20122;-47
2022/12/08 11:46:49;;;;;;;13.57;9.50;;;4.50;99.90;;;;;;5089362;28;20028;-47
2022/12/08 11:49:16;;;;;;;14.07;8.85;;;4.60;99.90;;;;;;5088333;28;20024;-47
2022/12/08 11:52:20;;;;;;;13.82;9.38;;;4.40;99.90;;;;;;5088333;28;20091;-47
2022/12/08 11:55:14;;;;;;;14.95;10.50;;;4.40;99.90;;;;;;5082779;28;20028;-47
2022/12/08 11:57:40;;;;;;;13.63;9.32;;;4.50;99.90;;;;;;5068638;28;20278;-46
2022/12/08 12:00:09;;;;;;;16.33;10.27;;;4.50;99.90;;;;;;5088211;28;20107;-46
2022/12/08 12:02:41;;;;;;;18.35;11.90;;;4.40;99.90;;;;;;5088864;28;20508;-45
2022/12/08 12:05:32;;;;;;;19.02;12.63;;;4.50;99.90;;;;;;5087661;28;20484;-46
2022/12/08 12:08:04;;;;;;;20.38;12.68;;;4.40;99.90;;;;;;5086182;28;20587;-46
2022/12/08 12:10:52;;;;;;;17.60;12.57;;;4.40;99.90;;;;;;5087706;28;20027;-46
2022/12/08 12:13:46;;;;;;;23.73;12.32;;;4.40;99.90;;;;;;5091042;28;20052;-46
2022/12/08 12:16:27;;;;;;;21.50;13.60;;;4.30;99.90;;;;;;5108706;28;20020;-46
2022/12/08 12:19:03;;;;;;;24.42;14.52;;;4.30;99.90;;;;;;5112868;28;20024;-46
2022/12/08 12:21:44;;;;;;;26.88;14.63;;;4.30;99.90;;;;;;5112286;28;20115;-46
2022/12/08 12:24:32;;;;;;;24.60;14.50;;;4.30;99.90;;;;;;5087245;28;20041;-46
2022/12/08 12:27:22;;;;;;;26.98;15.43;;;4.20;99.90;;;;;;5083765;28;20075;-46
2022/12/08 12:29:58;;;;;;;23.70;13.20;;;4.20;99.90;;;;;;5089607;28;20031;-46
2022/12/08 12:32:25;;;;;;;26.23;15.23;;;4.20;99.90;;;;;;5091618;28;20511;-47
2022/12/08 12:34:59;;;;;;;25.95;14.63;;;4.20;99.90;;;;;;5090885;28;20469;-47
2022/12/08 12:37:41;;;;;;;23.75;14.40;;;4.20;99.90;;;;;;5092300;28;20103;-47
2022/12/08 12:40:18;;;;;;;27.20;15.38;;;4.20;99.90;;;;;;5085127;28;20499;-47
2022/12/08 12:42:54;;;;;;;29.52;14.85;;;4.20;99.90;;;;;;5101656;28;20020;-47
2022/12/08 12:45:19;;;;;;;23.83;13.32;;;4.20;99.90;;;;;;5092183;28;20114;-46
2022/12/08 12:48:22;;;;;;;23.88;14.30;;;4.20;99.90;;;;;;5091713;28;20096;-47
2022/12/08 12:50:49;;;;;;;21.90;13.73;;;4.30;99.90;;;;;;5091352;28;20049;-46
2022/12/08 12:53:15;;;;;;;21.35;13.07;;;4.30;99.90;;;;;;5090110;28;20016;-47
2022/12/08 12:56:02;;;;;;;17.75;11.13;;;4.30;99.90;;;;;;5091173;28;20315;-47
2022/12/08 12:58:28;;;;;;;19.90;12.43;;;4.40;99.90;;;;;;5084787;28;20016;-46
2022/12/08 13:01:09;;;;;;;18.30;11.77;;;4.30;99.90;;;;;;5077828;28;20084;-46